PWSweather.com
Personal Weather Stations
Station Observations
ELGHEKO
El Gheko Neighborhood Association, Tucson, AZ 85710

El Gheko Neighborhood AssociationTucson, AZ 85710

Lat: 32.226108, Lon: -110.84443

Elevation: 2598

Station Type: Davis 6153 Vantage Pro 2

http://www.elgheko.us

Latest ConditionsUpdated 3:52:10 PM MST Sunday, Dec 9, 2018
Currently Today's Max Today's Min Today's Average
Temperature 65.0°F18.3°C 65.8°F18.8°C 38.3°F3.5°C 50.0°F10.0°C
Dew Point 42.5°F5.8°C 44.9°F7.2°C 35.8°F2.1°C 40.6°F4.8°C
Winds 2.0 mph W3.2 kmh W 5.0 mph -8.0 kmh - - 1.2 mph 1.9 kmh
Wind Gusts 7.0 mph11.3 kmh 11.0 mph17.7 kmh - -
Humidity 44% 93% 38% 74%
Pressure 30.19 in1022.4 mb 30.32 in1026.8 mb 30.19 in1022.4 mb -
Precipitation - 0.02 in0.5 mm - -
Hour Temp Dew Point Humidity Winds Wind Gusts Pressure Precip Precip Rate Daily Precip Total
03:52 PM 65.0°F18.3°C 42.5°F5.8°C 44% 2.0 mph W3.2 kmh W 7.0 mph11.3 kmh 30.19 in1022.4 mb 0.00 in0.0 mm 0.00 in0.0 mm 0.02 in0.5 mm
03:44 PM 65.3°F18.5°C 41.6°F5.3°C 42% 2.0 mph WNW3.2 kmh WNW 7.0 mph11.3 kmh 30.19 in1022.4 mb 0.00 in0.0 mm 0.00 in0.0 mm 0.02 in0.5 mm
03:36 PM 65.4°F18.6°C 41.7°F5.4°C 42% 3.0 mph WNW4.8 kmh WNW 8.0 mph12.9 kmh 30.19 in1022.4 mb 0.00 in0.0 mm 0.00 in0.0 mm 0.02 in0.5 mm
03:28 PM 65.5°F18.6°C 41.8°F5.4°C 42% 3.0 mph W4.8 kmh W 8.0 mph12.9 kmh 30.20 in1022.7 mb 0.00 in0.0 mm 0.00 in0.0 mm 0.02 in0.5 mm
03:20 PM 65.6°F18.7°C 41.3°F5.2°C 41% 4.0 mph WNW6.4 kmh WNW 9.0 mph14.5 kmh 30.20 in1022.7 mb 0.00 in0.0 mm 0.00 in0.0 mm 0.02 in0.5 mm
03:12 PM 65.7°F18.7°C 41.3°F5.2°C 41% 3.0 mph W4.8 kmh W 10.0 mph16.1 kmh 30.20 in1022.7 mb 0.00 in0.0 mm 0.00 in0.0 mm 0.02 in0.5 mm
03:04 PM 65.8°F18.8°C 40.8°F4.9°C 40% 4.0 mph WNW6.4 kmh WNW 9.0 mph14.5 kmh 30.20 in1022.7 mb 0.00 in0.0 mm 0.00 in0.0 mm 0.02 in0.5 mm
02:56 PM 65.7°F18.7°C 40.7°F4.8°C 40% 4.0 mph NW6.4 kmh NW 10.0 mph16.1 kmh 30.20 in1022.7 mb 0.00 in0.0 mm 0.00 in0.0 mm 0.02 in0.5 mm
02:48 PM 65.8°F18.8°C 40.8°F4.9°C 40% 4.0 mph WNW6.4 kmh WNW 9.0 mph14.5 kmh 30.20 in1022.7 mb 0.00 in0.0 mm 0.00 in0.0 mm 0.02 in0.5 mm
02:40 PM 65.6°F18.7°C 40.0°F4.4°C 39% 4.0 mph WNW6.4 kmh WNW 9.0 mph14.5 kmh 30.20 in1022.7 mb 0.00 in0.0 mm 0.00 in0.0 mm 0.02 in0.5 mm
02:32 PM 65.4°F18.6°C 39.1°F3.9°C 38% 5.0 mph WNW8.0 kmh WNW 10.0 mph16.1 kmh 30.21 in1023.0 mb 0.00 in0.0 mm 0.00 in0.0 mm 0.02 in0.5 mm
02:24 PM 65.2°F18.4°C 39.6°F4.2°C 39% 5.0 mph WNW8.0 kmh WNW 10.0 mph16.1 kmh 30.21 in1023.0 mb 0.00 in0.0 mm 0.00 in0.0 mm 0.02 in0.5 mm
02:16 PM 65.2°F18.4°C 39.6°F4.2°C 39% 5.0 mph W8.0 kmh W 11.0 mph17.7 kmh 30.21 in1023.0 mb 0.00 in0.0 mm 0.00 in0.0 mm 0.02 in0.5 mm
02:08 PM 65.2°F18.4°C 40.3°F4.6°C 40% 5.0 mph W8.0 kmh W 10.0 mph16.1 kmh 30.21 in1023.0 mb 0.00 in0.0 mm 0.00 in0.0 mm 0.02 in0.5 mm
02:00 PM 64.9°F18.3°C 40.0°F4.4°C 40% 3.0 mph W4.8 kmh W 9.0 mph14.5 kmh 30.21 in1023.0 mb 0.00 in0.0 mm 0.00 in0.0 mm 0.02 in0.5 mm
01:52 PM 64.6°F18.1°C 39.7°F4.3°C 40% 4.0 mph W6.4 kmh W 9.0 mph14.5 kmh 30.21 in1023.0 mb 0.00 in0.0 mm 0.00 in0.0 mm 0.02 in0.5 mm
01:44 PM 64.6°F18.1°C 40.4°F4.7°C 41% 4.0 mph W6.4 kmh W 9.0 mph14.5 kmh 30.21 in1023.0 mb 0.00 in0.0 mm 0.00 in0.0 mm 0.02 in0.5 mm
01:36 PM 64.4°F18.0°C 40.8°F4.9°C 42% 3.0 mph W4.8 kmh W 9.0 mph14.5 kmh 30.21 in1023.0 mb 0.00 in0.0 mm 0.00 in0.0 mm 0.02 in0.5 mm
01:28 PM 64.2°F17.9°C 40.6°F4.8°C 42% 4.0 mph WNW6.4 kmh WNW 8.0 mph12.9 kmh 30.21 in1023.0 mb 0.00 in0.0 mm 0.00 in0.0 mm 0.02 in0.5 mm
01:20 PM 63.9°F17.7°C 41.0°F5.0°C 43% 3.0 mph WNW4.8 kmh WNW 8.0 mph12.9 kmh 30.22 in1023.4 mb 0.00 in0.0 mm 0.00 in0.0 mm 0.02 in0.5 mm
01:12 PM 63.3°F17.4°C 41.0°F5.0°C 44% 3.0 mph WNW4.8 kmh WNW 8.0 mph12.9 kmh 30.22 in1023.4 mb 0.00 in0.0 mm 0.00 in0.0 mm 0.02 in0.5 mm
01:04 PM 63.0°F17.2°C 41.3°F5.2°C 45% 4.0 mph NW6.4 kmh NW 8.0 mph12.9 kmh 30.23 in1023.7 mb 0.00 in0.0 mm 0.00 in0.0 mm 0.02 in0.5 mm
12:56 PM 62.8°F17.1°C 41.1°F5.1°C 45% 4.0 mph WNW6.4 kmh WNW 8.0 mph12.9 kmh 30.23 in1023.7 mb 0.00 in0.0 mm 0.00 in0.0 mm 0.02 in0.5 mm
12:48 PM 62.7°F17.1°C 42.7°F5.9°C 48% 4.0 mph W6.4 kmh W 8.0 mph12.9 kmh 30.23 in1023.7 mb 0.00 in0.0 mm 0.00 in0.0 mm 0.02 in0.5 mm
12:40 PM 62.8°F17.1°C 43.3°F6.3°C 49% 4.0 mph WNW6.4 kmh WNW 9.0 mph14.5 kmh 30.24 in1024.0 mb 0.00 in0.0 mm 0.00 in0.0 mm 0.02 in0.5 mm
12:32 PM 62.6°F17.0°C 43.2°F6.2°C 49% 3.0 mph W4.8 kmh W 9.0 mph14.5 kmh 30.24 in1024.0 mb 0.00 in0.0 mm 0.00 in0.0 mm 0.02 in0.5 mm
12:24 PM 62.6°F17.0°C 43.2°F6.2°C 49% 3.0 mph WNW4.8 kmh WNW 6.0 mph9.7 kmh 30.24 in1024.0 mb 0.00 in0.0 mm 0.00 in0.0 mm 0.02 in0.5 mm
12:16 PM 62.3°F16.8°C 42.9°F6.1°C 49% 3.0 mph WNW4.8 kmh WNW 8.0 mph12.9 kmh 30.25 in1024.4 mb 0.00 in0.0 mm 0.00 in0.0 mm 0.02 in0.5 mm
12:08 PM 62.2°F16.8°C 42.8°F6.0°C 49% 2.0 mph WNW3.2 kmh WNW 5.0 mph8.0 kmh 30.25 in1024.4 mb 0.00 in0.0 mm 0.00 in0.0 mm 0.02 in0.5 mm
12:00 PM 61.9°F16.6°C 43.0°F6.1°C 50% 2.0 mph W3.2 kmh W 4.0 mph6.4 kmh 30.26 in1024.7 mb 0.00 in0.0 mm 0.00 in0.0 mm 0.02 in0.5 mm
11:52 AM 61.8°F16.6°C 43.5°F6.4°C 51% 2.0 mph WNW3.2 kmh WNW 4.0 mph6.4 kmh 30.26 in1024.7 mb 0.00 in0.0 mm 0.00 in0.0 mm 0.02 in0.5 mm
11:44 AM 61.4°F16.3°C 43.1°F6.2°C 51% 2.0 mph NW3.2 kmh NW 4.0 mph6.4 kmh 30.26 in1024.7 mb 0.00 in0.0 mm 0.00 in0.0 mm 0.02 in0.5 mm
11:36 AM 60.9°F16.1°C 44.1°F6.7°C 54% 2.0 mph WNW3.2 kmh WNW 5.0 mph8.0 kmh 30.27 in1025.1 mb 0.00 in0.0 mm 0.00 in0.0 mm 0.02 in0.5 mm
11:28 AM 60.7°F15.9°C 44.4°F6.9°C 55% 1.0 mph WSW1.6 kmh WSW 4.0 mph6.4 kmh 30.27 in1025.1 mb 0.00 in0.0 mm 0.00 in0.0 mm 0.02 in0.5 mm
11:20 AM 60.4°F15.8°C 43.7°F6.5°C 54% 2.0 mph WNW3.2 kmh WNW 4.0 mph6.4 kmh 30.28 in1025.4 mb 0.00 in0.0 mm 0.00 in0.0 mm 0.02 in0.5 mm
11:12 AM 59.8°F15.4°C 44.5°F6.9°C 57% 1.0 mph WSW1.6 kmh WSW 4.0 mph6.4 kmh 30.28 in1025.4 mb 0.00 in0.0 mm 0.00 in0.0 mm 0.02 in0.5 mm
11:04 AM 59.1°F15.1°C 43.9°F6.6°C 57% 1.0 mph WSW1.6 kmh WSW 3.0 mph4.8 kmh 30.29 in1025.7 mb 0.00 in0.0 mm 0.00 in0.0 mm 0.02 in0.5 mm
10:56 AM 58.7°F14.8°C 44.0°F6.7°C 58% 2.0 mph SSW3.2 kmh SSW 3.0 mph4.8 kmh 30.29 in1025.7 mb 0.01 in0.3 mm 0.00 in0.0 mm 0.02 in0.5 mm
10:48 AM 58.3°F14.6°C 44.0°F6.7°C 59% 1.0 mph S1.6 kmh S 3.0 mph4.8 kmh 30.30 in1026.1 mb 0.01 in0.3 mm 0.00 in0.0 mm 0.02 in0.5 mm
10:40 AM 57.7°F14.3°C 43.9°F6.6°C 60% Calm Calm 2.0 mph3.2 kmh 30.30 in1026.1 mb 0.01 in0.3 mm 0.00 in0.0 mm 0.02 in0.5 mm
10:32 AM 56.8°F13.8°C 43.5°F6.4°C 61% 1.0 mph S1.6 kmh S 3.0 mph4.8 kmh 30.30 in1026.1 mb 0.01 in0.3 mm 0.00 in0.0 mm 0.02 in0.5 mm
10:24 AM 56.5°F13.6°C 44.9°F7.2°C 65% 1.0 mph S1.6 kmh S 3.0 mph4.8 kmh 30.31 in1026.4 mb 0.01 in0.3 mm 0.00 in0.0 mm 0.02 in0.5 mm
10:16 AM 56.1°F13.4°C 44.1°F6.7°C 64% 1.0 mph S1.6 kmh S 3.0 mph4.8 kmh 30.31 in1026.4 mb 0.01 in0.3 mm 0.00 in0.0 mm 0.02 in0.5 mm
10:08 AM 55.3°F12.9°C 44.5°F6.9°C 67% 1.0 mph S1.6 kmh S 2.0 mph3.2 kmh 30.31 in1026.4 mb 0.01 in0.3 mm 0.08 in2.0 mm 0.02 in0.5 mm
10:00 AM 54.5°F12.5°C 44.9°F7.2°C 70% 1.0 mph S1.6 kmh S 4.0 mph6.4 kmh 30.32 in1026.8 mb 0.00 in0.0 mm 0.00 in0.0 mm 0.01 in0.3 mm
09:52 AM 53.5°F11.9°C 44.3°F6.8°C 71% 1.0 mph S1.6 kmh S 3.0 mph4.8 kmh 30.32 in1026.8 mb 0.00 in0.0 mm 0.00 in0.0 mm 0.01 in0.3 mm
09:44 AM 52.5°F11.4°C 44.1°F6.7°C 73% 1.0 mph S1.6 kmh S 4.0 mph6.4 kmh 30.31 in1026.4 mb 0.00 in0.0 mm 0.00 in0.0 mm 0.01 in0.3 mm
09:36 AM 51.2°F10.7°C 43.5°F6.4°C 75% 1.0 mph S1.6 kmh S 4.0 mph6.4 kmh 30.31 in1026.4 mb 0.00 in0.0 mm 0.00 in0.0 mm 0.01 in0.3 mm
09:28 AM 50.1°F10.1°C 43.5°F6.4°C 78% 1.0 mph SE1.6 kmh SE 3.0 mph4.8 kmh 30.32 in1026.8 mb 0.00 in0.0 mm 0.00 in0.0 mm 0.01 in0.3 mm
09:20 AM 48.7°F9.3°C 42.8°F6.0°C 80% Calm Calm 2.0 mph3.2 kmh 30.31 in1026.4 mb 0.00 in0.0 mm 0.00 in0.0 mm 0.01 in0.3 mm
09:12 AM 47.7°F8.7°C 42.5°F5.8°C 82% Calm Calm 3.0 mph4.8 kmh 30.31 in1026.4 mb 0.00 in0.0 mm 0.00 in0.0 mm 0.01 in0.3 mm
09:04 AM 46.6°F8.1°C 42.3°F5.7°C 85% Calm Calm 2.0 mph3.2 kmh 30.31 in1026.4 mb 0.00 in0.0 mm 0.00 in0.0 mm 0.01 in0.3 mm
08:56 AM 45.6°F7.6°C 42.5°F5.8°C 89% Calm Calm 2.0 mph3.2 kmh 30.31 in1026.4 mb 0.00 in0.0 mm 0.00 in0.0 mm 0.01 in0.3 mm
08:48 AM 44.7°F7.1°C 42.2°F5.7°C 91% Calm Calm 2.0 mph3.2 kmh 30.31 in1026.4 mb 0.00 in0.0 mm 0.00 in0.0 mm 0.01 in0.3 mm
08:40 AM 44.2°F6.8°C 42.0°F5.6°C 92% Calm Calm 1.0 mph1.6 kmh 30.31 in1026.4 mb 0.00 in0.0 mm 0.00 in0.0 mm 0.01 in0.3 mm
08:32 AM 43.4°F6.3°C 41.5°F5.3°C 93% Calm Calm 1.0 mph1.6 kmh 30.31 in1026.4 mb 0.00 in0.0 mm 0.00 in0.0 mm 0.01 in0.3 mm
08:24 AM 42.5°F5.8°C 40.6°F4.8°C 93% Calm Calm -- 30.31 in1026.4 mb 0.00 in0.0 mm 0.00 in0.0 mm 0.01 in0.3 mm
08:16 AM 41.9°F5.5°C 39.7°F4.3°C 92% Calm Calm -- 30.31 in1026.4 mb 0.00 in0.0 mm 0.00 in0.0 mm 0.01 in0.3 mm
08:08 AM 41.4°F5.2°C 39.3°F4.1°C 92% Calm Calm 1.0 mph1.6 kmh 30.31 in1026.4 mb 0.00 in0.0 mm 0.00 in0.0 mm 0.01 in0.3 mm
08:00 AM 40.9°F4.9°C 39.0°F3.9°C 93% Calm Calm 2.0 mph3.2 kmh 30.30 in1026.1 mb 0.00 in0.0 mm 0.00 in0.0 mm 0.01 in0.3 mm
07:52 AM 40.2°F4.6°C 38.1°F3.4°C 92% Calm Calm 3.0 mph4.8 kmh 30.30 in1026.1 mb 0.00 in0.0 mm 0.00 in0.0 mm 0.01 in0.3 mm
07:44 AM 39.6°F4.2°C 37.5°F3.1°C 92% 1.0 mph SE1.6 kmh SE 3.0 mph4.8 kmh 30.30 in1026.1 mb 0.00 in0.0 mm 0.00 in0.0 mm 0.01 in0.3 mm
07:36 AM 39.2°F4.0°C 37.1°F2.8°C 92% Calm Calm 3.0 mph4.8 kmh 30.30 in1026.1 mb 0.00 in0.0 mm 0.00 in0.0 mm 0.01 in0.3 mm
07:28 AM 38.9°F3.8°C 36.8°F2.7°C 92% Calm Calm 3.0 mph4.8 kmh 30.29 in1025.7 mb 0.00 in0.0 mm 0.00 in0.0 mm 0.01 in0.3 mm
07:20 AM 38.7°F3.7°C 36.3°F2.4°C 91% Calm Calm 2.0 mph3.2 kmh 30.29 in1025.7 mb 0.00 in0.0 mm 0.00 in0.0 mm 0.01 in0.3 mm
07:12 AM 38.6°F3.7°C 36.2°F2.3°C 91% Calm Calm 2.0 mph3.2 kmh 30.29 in1025.7 mb 0.00 in0.0 mm 0.00 in0.0 mm 0.01 in0.3 mm
07:04 AM 38.3°F3.5°C 35.9°F2.2°C 91% Calm Calm -- 30.29 in1025.7 mb 0.00 in0.0 mm 0.00 in0.0 mm 0.01 in0.3 mm
06:56 AM 38.4°F3.6°C 36.0°F2.2°C 91% Calm Calm -- 30.29 in1025.7 mb 0.00 in0.0 mm 0.00 in0.0 mm 0.01 in0.3 mm
06:48 AM 38.4°F3.6°C 36.0°F2.2°C 91% Calm Calm -- 30.29 in1025.7 mb 0.00 in0.0 mm 0.00 in0.0 mm 0.01 in0.3 mm
06:40 AM 38.5°F3.6°C 35.8°F2.1°C 90% Calm Calm -- 30.29 in1025.7 mb 0.00 in0.0 mm 0.00 in0.0 mm 0.01 in0.3 mm
06:32 AM 38.7°F3.7°C 36.0°F2.2°C 90% Calm Calm -- 30.29 in1025.7 mb 0.00 in0.0 mm 0.00 in0.0 mm 0.01 in0.3 mm
06:24 AM 38.8°F3.8°C 36.1°F2.3°C 90% Calm Calm -- 30.28 in1025.4 mb 0.00 in0.0 mm 0.00 in0.0 mm 0.01 in0.3 mm
06:16 AM 39.0°F3.9°C 36.3°F2.4°C 90% Calm Calm -- 30.28 in1025.4 mb 0.00 in0.0 mm 0.00 in0.0 mm 0.01 in0.3 mm
06:08 AM 39.1°F3.9°C 36.4°F2.4°C 90% Calm Calm -- 30.28 in1025.4 mb 0.00 in0.0 mm 0.00 in0.0 mm 0.01 in0.3 mm
06:00 AM 39.4°F4.1°C 36.7°F2.6°C 90% Calm Calm -- 30.27 in1025.1 mb 0.00 in0.0 mm 0.00 in0.0 mm 0.01 in0.3 mm
05:52 AM 39.5°F4.2°C 36.8°F2.7°C 90% Calm Calm -- 30.27 in1025.1 mb 0.00 in0.0 mm 0.00 in0.0 mm 0.01 in0.3 mm
05:44 AM 39.6°F4.2°C 36.9°F2.7°C 90% Calm Calm -- 30.28 in1025.4 mb 0.00 in0.0 mm 0.00 in0.0 mm 0.01 in0.3 mm
05:36 AM 39.8°F4.3°C 37.1°F2.8°C 90% Calm Calm -- 30.27 in1025.1 mb 0.00 in0.0 mm 0.00 in0.0 mm 0.01 in0.3 mm
05:28 AM 39.9°F4.4°C 37.2°F2.9°C 90% Calm Calm -- 30.27 in1025.1 mb 0.00 in0.0 mm 0.00 in0.0 mm 0.01 in0.3 mm
05:20 AM 40.1°F4.5°C 37.4°F3.0°C 90% Calm Calm -- 30.27 in1025.1 mb 0.00 in0.0 mm 0.00 in0.0 mm 0.01 in0.3 mm
05:12 AM 40.2°F4.6°C 37.5°F3.1°C 90% Calm Calm -- 30.27 in1025.1 mb 0.00 in0.0 mm 0.00 in0.0 mm 0.01 in0.3 mm
05:04 AM 40.4°F4.7°C 37.7°F3.2°C 90% Calm Calm -- 30.27 in1025.1 mb 0.00 in0.0 mm 0.00 in0.0 mm 0.01 in0.3 mm
04:56 AM 40.7°F4.8°C 38.0°F3.3°C 90% Calm Calm -- 30.27 in1025.1 mb 0.00 in0.0 mm 0.00 in0.0 mm 0.01 in0.3 mm
04:48 AM 40.9°F4.9°C 38.2°F3.4°C 90% Calm Calm -- 30.27 in1025.1 mb 0.00 in0.0 mm 0.00 in0.0 mm 0.01 in0.3 mm
04:40 AM 41.2°F5.1°C 38.5°F3.6°C 90% Calm Calm -- 30.27 in1025.1 mb 0.00 in0.0 mm 0.00 in0.0 mm 0.01 in0.3 mm
04:32 AM 41.4°F5.2°C 38.7°F3.7°C 90% Calm Calm -- 30.27 in1025.1 mb 0.00 in0.0 mm 0.00 in0.0 mm 0.01 in0.3 mm
04:24 AM 41.5°F5.3°C 39.1°F3.9°C 91% Calm Calm -- 30.27 in1025.1 mb 0.00 in0.0 mm 0.00 in0.0 mm 0.01 in0.3 mm
04:16 AM 41.6°F5.3°C 39.2°F4.0°C 91% Calm Calm -- 30.26 in1024.7 mb 0.00 in0.0 mm 0.00 in0.0 mm 0.01 in0.3 mm
04:08 AM 41.6°F5.3°C 38.9°F3.8°C 90% Calm Calm 1.0 mph1.6 kmh 30.27 in1025.1 mb 0.00 in0.0 mm 0.00 in0.0 mm 0.01 in0.3 mm
04:00 AM 41.6°F5.3°C 38.9°F3.8°C 90% Calm Calm 2.0 mph3.2 kmh 30.27 in1025.1 mb 0.01 in0.3 mm 0.00 in0.0 mm 0.01 in0.3 mm
03:52 AM 41.6°F5.3°C 38.9°F3.8°C 90% Calm Calm 3.0 mph4.8 kmh 30.27 in1025.1 mb 0.01 in0.3 mm 0.00 in0.0 mm 0.01 in0.3 mm
03:44 AM 41.8°F5.4°C 39.1°F3.9°C 90% Calm Calm -- 30.27 in1025.1 mb 0.01 in0.3 mm 0.00 in0.0 mm 0.01 in0.3 mm
03:36 AM 41.9°F5.5°C 39.2°F4.0°C 90% Calm Calm -- 30.27 in1025.1 mb 0.01 in0.3 mm 0.00 in0.0 mm 0.01 in0.3 mm
03:28 AM 42.1°F5.6°C 39.4°F4.1°C 90% Calm Calm 1.0 mph1.6 kmh 30.27 in1025.1 mb 0.01 in0.3 mm 0.00 in0.0 mm 0.01 in0.3 mm
03:20 AM 42.1°F5.6°C 39.4°F4.1°C 90% Calm Calm 1.0 mph1.6 kmh 30.27 in1025.1 mb 0.01 in0.3 mm 0.00 in0.0 mm 0.01 in0.3 mm
03:12 AM 42.2°F5.7°C 39.5°F4.2°C 90% Calm Calm 2.0 mph3.2 kmh 30.27 in1025.1 mb 0.01 in0.3 mm 0.08 in2.0 mm 0.01 in0.3 mm
03:04 AM 42.2°F5.7°C 39.5°F4.2°C 90% 1.0 mph SE1.6 kmh SE 3.0 mph4.8 kmh 30.27 in1025.1 mb 0.00 in0.0 mm 0.00 in0.0 mm 0.00 in0.0 mm
02:56 AM 42.3°F5.7°C 39.6°F4.2°C 90% Calm Calm 1.0 mph1.6 kmh 30.27 in1025.1 mb 0.00 in0.0 mm 0.00 in0.0 mm 0.00 in0.0 mm
02:48 AM 42.5°F5.8°C 39.8°F4.3°C 90% Calm Calm -- 30.27 in1025.1 mb 0.00 in0.0 mm 0.00 in0.0 mm 0.00 in0.0 mm
02:40 AM 42.7°F5.9°C 40.0°F4.4°C 90% Calm Calm -- 30.27 in1025.1 mb 0.00 in0.0 mm 0.00 in0.0 mm 0.00 in0.0 mm
02:32 AM 42.9°F6.1°C 40.2°F4.6°C 90% Calm Calm 1.0 mph1.6 kmh 30.28 in1025.4 mb 0.00 in0.0 mm 0.00 in0.0 mm 0.00 in0.0 mm
02:24 AM 43.1°F6.2°C 40.4°F4.7°C 90% Calm Calm -- 30.28 in1025.4 mb 0.00 in0.0 mm 0.00 in0.0 mm 0.00 in0.0 mm
02:16 AM 43.2°F6.2°C 40.5°F4.7°C 90% Calm Calm 1.0 mph1.6 kmh 30.28 in1025.4 mb 0.00 in0.0 mm 0.00 in0.0 mm 0.00 in0.0 mm
02:08 AM 43.3°F6.3°C 40.6°F4.8°C 90% Calm Calm 3.0 mph4.8 kmh 30.28 in1025.4 mb 0.00 in0.0 mm 0.00 in0.0 mm 0.00 in0.0 mm
02:00 AM 43.4°F6.3°C 40.7°F4.8°C 90% 1.0 mph S1.6 kmh S 3.0 mph4.8 kmh 30.28 in1025.4 mb 0.00 in0.0 mm 0.00 in0.0 mm 0.00 in0.0 mm
01:52 AM 43.4°F6.3°C 40.4°F4.7°C 89% Calm Calm 2.0 mph3.2 kmh 30.28 in1025.4 mb 0.00 in0.0 mm 0.00 in0.0 mm 0.00 in0.0 mm
01:44 AM 43.7°F6.5°C 40.7°F4.8°C 89% Calm Calm -- 30.28 in1025.4 mb 0.00 in0.0 mm 0.00 in0.0 mm 0.00 in0.0 mm
01:36 AM 43.9°F6.6°C 40.9°F4.9°C 89% Calm Calm -- 30.28 in1025.4 mb 0.00 in0.0 mm 0.00 in0.0 mm 0.00 in0.0 mm
01:28 AM 44.1°F6.7°C 41.1°F5.1°C 89% Calm Calm -- 30.28 in1025.4 mb 0.00 in0.0 mm 0.00 in0.0 mm 0.00 in0.0 mm
01:20 AM 44.3°F6.8°C 41.3°F5.2°C 89% Calm Calm 1.0 mph1.6 kmh 30.28 in1025.4 mb 0.00 in0.0 mm 0.00 in0.0 mm 0.00 in0.0 mm
01:12 AM 44.5°F6.9°C 41.5°F5.3°C 89% Calm Calm 2.0 mph3.2 kmh 30.28 in1025.4 mb 0.00 in0.0 mm 0.00 in0.0 mm 0.00 in0.0 mm
01:04 AM 44.7°F7.1°C 41.9°F5.5°C 90% Calm Calm 2.0 mph3.2 kmh 30.28 in1025.4 mb 0.00 in0.0 mm 0.00 in0.0 mm 0.00 in0.0 mm
12:56 AM 44.8°F7.1°C 42.0°F5.6°C 90% 1.0 mph S1.6 kmh S 4.0 mph6.4 kmh 30.28 in1025.4 mb 0.00 in0.0 mm 0.00 in0.0 mm 0.00 in0.0 mm
12:48 AM 44.9°F7.2°C 42.1°F5.6°C 90% 2.0 mph SSE3.2 kmh SSE 5.0 mph8.0 kmh 30.28 in1025.4 mb 0.00 in0.0 mm 0.00 in0.0 mm 0.00 in0.0 mm
12:40 AM 44.9°F7.2°C 42.1°F5.6°C 90% 2.0 mph SSE3.2 kmh SSE 6.0 mph9.7 kmh 30.28 in1025.4 mb 0.00 in0.0 mm 0.00 in0.0 mm 0.00 in0.0 mm
12:32 AM 44.9°F7.2°C 42.1°F5.6°C 90% 2.0 mph SE3.2 kmh SE 6.0 mph9.7 kmh 30.27 in1025.1 mb 0.00 in0.0 mm 0.00 in0.0 mm 0.00 in0.0 mm
12:24 AM 44.8°F7.1°C 41.8°F5.4°C 89% 1.0 mph S1.6 kmh S 4.0 mph6.4 kmh 30.28 in1025.4 mb 0.00 in0.0 mm 0.00 in0.0 mm 0.00 in0.0 mm
12:16 AM 44.9°F7.2°C 41.6°F5.3°C 88% Calm Calm 1.0 mph1.6 kmh 30.28 in1025.4 mb 0.00 in0.0 mm 0.00 in0.0 mm 0.00 in0.0 mm
12:08 AM 45.0°F7.2°C 41.7°F5.4°C 88% Calm Calm -- 30.28 in1025.4 mb 0.00 in0.0 mm 0.00 in0.0 mm 0.00 in0.0 mm
12:00 AM 45.1°F7.3°C 41.8°F5.4°C 88% Calm Calm -- 30.28 in1025.4 mb 0.00 in0.0 mm 0.00 in0.0 mm 0.00 in0.0 mm